Time;durP1;ratioP1;P1;durP2;ratioP2;P2;SDS_P1;SDS_P2;PMS_P1;PMS_P2;Temp;Humidity;BMP_temperature;BMP_pressure;BME280_temperature;BME280_humidity;BME280_pressure;Samples;Min_cycle;Max_cycle;Signal;HPM_P1;HPM_P2
2021/07/04 00:00:16;;;;;;;7.30;5.20;;;16.60;99.90;;;;;;5092977;28;20452;-82
2021/07/04 00:02:43;;;;;;;7.70;5.70;;;16.60;99.90;;;;;;5084969;28;20997;-82
2021/07/04 00:05:12;;;;;;;8.93;6.07;;;16.60;99.90;;;;;;5090759;28;20440;-82
2021/07/04 00:07:41;;;;;;;7.40;6.27;;;16.60;99.90;;;;;;5079250;28;20475;-82
2021/07/04 00:10:12;;;;;;;7.80;6.27;;;16.60;99.90;;;;;;5074071;28;20885;-82
2021/07/04 00:12:38;;;;;;;9.57;7.10;;;16.50;99.90;;;;;;5088330;28;20445;-82
2021/07/04 00:15:08;;;;;;;9.20;6.53;;;16.50;99.90;;;;;;5073166;28;20486;-82
2021/07/04 00:17:35;;;;;;;7.40;6.63;;;16.50;99.90;;;;;;5090174;28;20475;-86
2021/07/04 00:20:05;;;;;;;10.10;7.13;;;16.50;99.90;;;;;;5080731;28;20453;-86
2021/07/04 00:22:32;;;;;;;8.27;6.33;;;16.50;99.90;;;;;;5072341;28;20825;-85
2021/07/04 00:24:58;;;;;;;6.83;6.13;;;16.50;99.90;;;;;;5072917;28;20444;-86
2021/07/04 00:27:26;;;;;;;7.10;6.00;;;16.50;99.90;;;;;;5072531;28;20460;-86
2021/07/04 00:29:53;;;;;;;6.90;6.30;;;16.50;99.90;;;;;;5072657;28;20451;-86
2021/07/04 00:32:20;;;;;;;9.47;6.87;;;16.50;99.90;;;;;;5074649;28;20437;-86
2021/07/04 00:34:47;;;;;;;9.00;6.73;;;16.50;99.90;;;;;;5076312;28;20481;-86
2021/07/04 00:37:13;;;;;;;7.43;6.60;;;16.50;99.90;;;;;;5075978;28;20465;-86
2021/07/04 00:39:40;;;;;;;9.30;7.50;;;16.50;99.90;;;;;;5076194;28;20460;-86
2021/07/04 00:42:08;;;;;;;8.93;7.17;;;16.50;99.90;;;;;;5076382;28;20440;-86
2021/07/04 00:44:36;;;;;;;8.30;6.80;;;16.60;99.90;;;;;;5075880;28;20483;-86
2021/07/04 00:47:02;;;;;;;7.27;6.50;;;16.60;99.90;;;;;;5075845;28;20452;-86
2021/07/04 00:49:29;;;;;;;7.83;7.03;;;16.50;99.90;;;;;;5075977;28;20464;-86
2021/07/04 00:51:56;;;;;;;6.73;6.03;;;16.50;99.90;;;;;;5076001;28;20476;-87
2021/07/04 00:54:23;;;;;;;9.50;6.23;;;16.50;99.90;;;;;;5075875;28;20437;-79
2021/07/04 00:56:50;;;;;;;7.40;6.07;;;16.50;99.90;;;;;;5075219;28;20451;-79
2021/07/04 00:59:17;;;;;;;9.13;6.83;;;16.40;99.90;;;;;;5075291;28;20469;-79
2021/07/04 01:01:45;;;;;;;6.93;6.20;;;16.40;99.90;;;;;;5075616;28;20449;-79
2021/07/04 01:04:12;;;;;;;8.20;6.33;;;16.40;99.90;;;;;;5074913;28;20475;-78
2021/07/04 01:06:40;;;;;;;7.43;6.57;;;16.40;99.90;;;;;;5074987;28;20506;-79
2021/07/04 01:09:07;;;;;;;8.07;6.47;;;16.40;99.90;;;;;;5093497;28;20471;-79
2021/07/04 01:11:34;;;;;;;6.70;6.00;;;16.40;99.90;;;;;;5090582;28;20967;-79
2021/07/04 01:14:01;;;;;;;6.83;6.13;;;16.40;99.90;;;;;;5095164;28;20455;-79
2021/07/04 01:16:28;;;;;;;7.37;6.67;;;16.40;99.90;;;;;;5093532;28;20471;-79
2021/07/04 01:18:56;;;;;;;8.63;6.70;;;16.40;99.90;;;;;;5079746;28;20471;-87
2021/07/04 01:21:25;;;;;;;7.20;6.40;;;16.40;99.90;;;;;;5087781;28;20448;-87
2021/07/04 01:23:53;;;;;;;9.70;6.10;;;16.50;99.90;;;;;;5078970;28;20480;-86
2021/07/04 01:26:20;;;;;;;7.33;6.60;;;16.50;99.90;;;;;;5087632;28;20984;-87
2021/07/04 01:28:46;;;;;;;8.30;6.50;;;16.50;99.90;;;;;;5083850;28;20467;-86
2021/07/04 01:31:13;;;;;;;8.43;6.20;;;16.50;99.90;;;;;;5095703;28;20447;-86
2021/07/04 01:33:40;;;;;;;10.30;7.00;;;16.50;99.90;;;;;;5089570;28;20452;-86
2021/07/04 01:36:10;;;;;;;8.00;6.57;;;16.50;99.90;;;;;;5080846;28;20453;-83
2021/07/04 01:38:36;;;;;;;7.63;6.80;;;16.50;99.90;;;;;;5089102;28;20472;-82
2021/07/04 01:41:05;;;;;;;8.30;6.50;;;16.50;99.90;;;;;;5094430;28;20530;-82
2021/07/04 01:43:32;;;;;;;7.50;6.63;;;16.50;99.90;;;;;;5075525;28;20487;-82
2021/07/04 01:45:58;;;;;;;10.10;7.63;;;16.50;99.90;;;;;;5075127;28;20453;-82
2021/07/04 01:48:25;;;;;;;7.27;6.57;;;16.50;99.90;;;;;;5082183;28;20465;-82
2021/07/04 01:50:52;;;;;;;9.93;7.13;;;16.50;99.90;;;;;;5074909;28;20445;-82
2021/07/04 01:53:21;;;;;;;8.63;6.87;;;16.50;99.90;;;;;;5075986;28;20449;-82
2021/07/04 01:55:48;;;;;;;9.60;6.30;;;16.50;99.90;;;;;;5074935;28;20457;-82
2021/07/04 01:58:16;;;;;;;9.70;6.40;;;16.50;99.90;;;;;;5074863;28;20476;-82
2021/07/04 02:00:44;;;;;;;7.23;6.53;;;16.50;99.90;;;;;;5087373;28;20451;-82
2021/07/04 02:03:12;;;;;;;8.53;6.60;;;16.50;99.90;;;;;;5086617;28;20897;-79
2021/07/04 02:05:39;;;;;;;8.13;6.50;;;16.50;99.90;;;;;;5075032;28;20455;-79
2021/07/04 02:08:07;;;;;;;6.00;5.40;;;16.50;99.90;;;;;;5085390;28;20542;-79
2021/07/04 02:10:36;;;;;;;8.10;7.30;;;16.60;99.90;;;;;;5090751;28;20445;-79
2021/07/04 02:13:04;;;;;;;6.87;6.17;;;16.50;99.90;;;;;;5074695;28;20441;-79
2021/07/04 02:15:34;;;;;;;7.93;6.30;;;16.50;99.90;;;;;;5092173;28;20487;-79
2021/07/04 02:18:04;;;;;;;11.20;7.03;;;16.40;99.90;;;;;;5078639;28;20465;-86
2021/07/04 02:20:36;;;;;;;6.70;6.10;;;16.40;99.90;;;;;;5077065;28;20445;-85
2021/07/04 02:23:05;;;;;;;7.57;6.80;;;16.40;99.90;;;;;;5084990;28;20528;-86
2021/07/04 02:25:32;;;;;;;8.53;6.20;;;16.40;99.90;;;;;;5075522;28;20483;-86
2021/07/04 02:28:00;;;;;;;11.37;7.13;;;16.40;99.90;;;;;;5074637;28;20469;-79
2021/07/04 02:30:27;;;;;;;7.97;6.70;;;16.40;99.90;;;;;;5074125;28;20459;-82
2021/07/04 02:32:55;;;;;;;9.20;7.57;;;16.40;99.90;;;;;;5079073;28;20441;-79
2021/07/04 02:35:22;;;;;;;13.80;7.47;;;16.40;99.90;;;;;;5093138;28;20436;-79
2021/07/04 02:37:49;;;;;;;7.83;7.03;;;16.40;99.90;;;;;;5093348;28;20468;-79
2021/07/04 02:40:15;;;;;;;6.53;5.93;;;16.40;99.90;;;;;;5081856;28;20449;-79
2021/07/04 02:42:42;;;;;;;8.20;6.43;;;16.30;99.90;;;;;;5080784;28;20440;-79
2021/07/04 02:45:10;;;;;;;8.27;7.40;;;16.30;99.90;;;;;;5093097;28;20506;-79
2021/07/04 02:47:37;;;;;;;14.50;7.00;;;16.30;99.90;;;;;;5075894;28;20472;-79
2021/07/04 02:50:07;;;;;;;7.43;6.67;;;16.30;99.90;;;;;;5093714;28;20455;-79
2021/07/04 02:52:34;;;;;;;7.70;6.80;;;16.30;99.90;;;;;;5080884;28;20453;-79
2021/07/04 02:55:00;;;;;;;7.17;6.47;;;16.40;99.90;;;;;;5078173;28;20434;-79
2021/07/04 02:57:27;;;;;;;7.13;6.40;;;16.30;99.90;;;;;;5080075;28;20473;-82
2021/07/04 02:59:54;;;;;;;7.43;6.73;;;16.30;99.90;;;;;;5073912;28;20457;-82
2021/07/04 03:02:21;;;;;;;9.60;6.80;;;16.30;99.90;;;;;;5074146;28;20445;-82
2021/07/04 03:04:48;;;;;;;12.97;7.40;;;16.40;99.90;;;;;;5086888;28;20480;-86
2021/07/04 03:07:16;;;;;;;7.83;6.93;;;16.40;99.90;;;;;;5091358;28;20474;-86
2021/07/04 03:09:43;;;;;;;7.63;6.83;;;16.40;99.90;;;;;;5073756;28;20449;-86
2021/07/04 03:12:10;;;;;;;8.67;7.77;;;16.40;99.90;;;;;;5073247;28;20453;-86
2021/07/04 03:14:37;;;;;;;12.23;7.00;;;16.40;99.90;;;;;;5073548;28;20452;-85
2021/07/04 03:17:05;;;;;;;11.70;8.07;;;16.40;99.90;;;;;;5087343;28;20480;-82
2021/07/04 03:19:31;;;;;;;9.03;7.53;;;16.40;99.90;;;;;;5076766;28;20952;-83
2021/07/04 03:21:58;;;;;;;7.87;6.77;;;16.40;99.90;;;;;;5093407;28;20939;-82
2021/07/04 03:24:26;;;;;;;9.33;7.23;;;16.40;99.90;;;;;;5080844;28;20477;-83
2021/07/04 03:26:54;;;;;;;7.70;7.00;;;16.40;99.90;;;;;;5082734;28;20444;-83
2021/07/04 03:29:20;;;;;;;8.03;6.50;;;16.50;99.90;;;;;;5077535;28;20460;-83
2021/07/04 03:31:47;;;;;;;8.90;6.87;;;16.50;99.90;;;;;;5074567;28;20452;-83
2021/07/04 03:34:14;;;;;;;8.23;7.40;;;16.40;99.90;;;;;;5081467;28;20436;-82
2021/07/04 03:36:41;;;;;;;9.40;6.60;;;16.40;99.90;;;;;;5074778;28;20455;-82
2021/07/04 03:39:08;;;;;;;9.27;7.07;;;16.40;99.90;;;;;;5079689;28;20476;-82
2021/07/04 03:41:36;;;;;;;8.53;6.50;;;16.40;99.90;;;;;;5073252;28;20449;-82
2021/07/04 03:44:03;;;;;;;8.70;7.17;;;16.40;99.90;;;;;;5083490;28;20483;-82
2021/07/04 03:46:30;;;;;;;8.77;6.50;;;16.40;99.90;;;;;;5093404;28;20444;-82
2021/07/04 03:48:56;;;;;;;7.30;6.30;;;16.50;99.90;;;;;;5091794;28;20471;-82
2021/07/04 03:51:23;;;;;;;7.80;6.80;;;16.50;99.90;;;;;;5081292;28;20892;-82
2021/07/04 03:53:50;;;;;;;8.00;6.40;;;16.40;99.90;;;;;;5082249;28;20447;-82
2021/07/04 03:56:17;;;;;;;9.00;7.50;;;16.50;99.90;;;;;;5090807;28;20819;-82
2021/07/04 03:58:45;;;;;;;8.07;6.77;;;16.50;99.90;;;;;;5076254;28;20472;-83
2021/07/04 04:01:18;;;;;;;6.30;5.70;;;16.50;99.90;;;;;;5076963;28;20452;-82
2021/07/04 04:03:45;;;;;;;8.70;6.80;;;16.50;99.90;;;;;;5083094;28;20440;-82
2021/07/04 04:06:12;;;;;;;7.03;6.30;;;16.60;99.90;;;;;;5095584;28;20469;-82
2021/07/04 04:08:39;;;;;;;7.20;6.43;;;16.50;99.90;;;;;;5083625;28;20479;-82
2021/07/04 04:11:06;;;;;;;7.30;6.60;;;16.60;99.90;;;;;;5076971;28;20452;-82
2021/07/04 04:13:32;;;;;;;6.87;6.13;;;16.50;99.90;;;;;;5090806;28;20943;-82
2021/07/04 04:16:00;;;;;;;7.53;6.60;;;16.50;99.90;;;;;;5095997;28;20463;-79
2021/07/04 04:18:28;;;;;;;10.20;7.70;;;16.50;99.90;;;;;;5084893;28;20472;-79
2021/07/04 04:20:56;;;;;;;10.03;7.20;;;16.50;99.90;;;;;;5076834;28;20445;-79
2021/07/04 04:23:23;;;;;;;6.80;6.10;;;16.50;99.90;;;;;;5076797;28;20545;-79
2021/07/04 04:25:50;;;;;;;7.97;7.17;;;16.40;99.90;;;;;;5076715;28;20483;-79
2021/07/04 04:28:17;;;;;;;8.33;7.00;;;16.50;99.90;;;;;;5083055;28;20507;-79
2021/07/04 04:30:44;;;;;;;10.00;6.80;;;16.50;99.90;;;;;;5086559;28;20444;-79
2021/07/04 04:33:13;;;;;;;7.57;6.83;;;16.50;99.90;;;;;;5087332;28;20448;-79
2021/07/04 04:35:40;;;;;;;8.07;7.10;;;16.50;99.90;;;;;;5096778;28;20444;-79
2021/07/04 04:38:07;;;;;;;7.30;6.60;;;16.50;99.90;;;;;;5080959;28;20469;-86
2021/07/04 04:40:34;;;;;;;7.37;6.67;;;16.50;99.90;;;;;;5078592;28;20453;-86
2021/07/04 04:43:00;;;;;;;8.53;7.57;;;16.50;99.90;;;;;;5090528;28;20440;-79
2021/07/04 04:45:27;;;;;;;7.57;6.87;;;16.50;99.90;;;;;;5095863;28;20474;-79
2021/07/04 04:47:54;;;;;;;8.00;7.20;;;16.50;99.90;;;;;;5081287;28;21089;-79
2021/07/04 04:50:23;;;;;;;8.73;7.10;;;16.60;99.90;;;;;;5092249;28;20439;-82
2021/07/04 04:52:49;;;;;;;8.33;7.00;;;16.60;99.90;;;;;;5078002;28;20445;-82
2021/07/04 04:55:16;;;;;;;8.70;7.10;;;16.60;99.90;;;;;;5076222;28;20441;-79
2021/07/04 04:57:43;;;;;;;8.00;7.20;;;16.60;99.90;;;;;;5080109;28;21017;-82
2021/07/04 05:00:12;;;;;;;10.33;7.13;;;16.60;99.90;;;;;;5087184;28;20441;-82
2021/07/04 05:02:39;;;;;;;8.80;7.37;;;16.70;99.90;;;;;;5083751;28;20562;-82
2021/07/04 05:05:07;;;;;;;7.77;6.97;;;16.70;99.90;;;;;;5095751;28;20480;-86
2021/07/04 05:07:35;;;;;;;7.77;7.00;;;16.80;99.90;;;;;;5085907;28;21031;-83
2021/07/04 05:10:03;;;;;;;8.33;7.40;;;16.80;99.90;;;;;;5094090;28;20496;-82
2021/07/04 05:12:30;;;;;;;8.07;6.80;;;16.80;99.90;;;;;;5075606;28;20452;-82
2021/07/04 05:14:56;;;;;;;7.77;6.70;;;16.90;99.90;;;;;;5088738;28;20550;-82
2021/07/04 05:17:23;;;;;;;10.63;7.00;;;16.90;99.90;;;;;;5075111;28;20477;-83
2021/07/04 05:19:50;;;;;;;7.67;6.80;;;17.00;99.90;;;;;;5083341;28;20449;-83
2021/07/04 05:22:17;;;;;;;7.33;6.37;;;17.10;99.90;;;;;;5082811;28;20440;-82
2021/07/04 05:24:45;;;;;;;8.37;6.90;;;17.10;99.90;;;;;;5095778;28;20483;-82
2021/07/04 05:27:11;;;;;;;6.80;6.20;;;17.20;99.90;;;;;;5081519;28;20817;-82
2021/07/04 05:29:38;;;;;;;7.57;6.30;;;17.20;99.90;;;;;;5089481;28;20445;-82
2021/07/04 05:32:05;;;;;;;6.90;5.93;;;17.30;99.90;;;;;;5076812;28;20449;-82
2021/07/04 05:34:32;;;;;;;6.53;5.93;;;17.40;99.90;;;;;;5076261;28;20445;-83
2021/07/04 05:36:59;;;;;;;7.40;6.50;;;17.50;99.90;;;;;;5092127;28;20448;-83
2021/07/04 05:39:28;;;;;;;7.03;5.50;;;17.60;99.90;;;;;;5084667;28;20445;-83
2021/07/04 05:41:56;;;;;;;7.30;5.73;;;17.70;99.90;;;;;;5075424;28;20445;-83
2021/07/04 05:44:22;;;;;;;6.90;6.10;;;17.70;99.90;;;;;;5075077;28;20456;-82
2021/07/04 05:46:49;;;;;;;7.10;6.40;;;17.70;99.90;;;;;;5094513;28;20452;-83
2021/07/04 05:49:17;;;;;;;6.30;5.10;;;17.70;99.90;;;;;;5085990;28;20472;-82
2021/07/04 05:51:44;;;;;;;6.10;5.47;;;17.80;99.90;;;;;;5086492;28;20444;-83
2021/07/04 05:54:11;;;;;;;5.20;4.63;;;17.70;99.90;;;;;;5095322;28;20455;-83
2021/07/04 05:56:38;;;;;;;5.77;5.17;;;17.80;99.90;;;;;;5084805;28;20445;-86
2021/07/04 05:59:07;;;;;;;6.40;5.27;;;17.80;99.90;;;;;;5087592;28;20468;-83
2021/07/04 06:01:33;;;;;;;6.60;5.70;;;17.80;99.90;;;;;;5090001;28;20441;-83
2021/07/04 06:04:00;;;;;;;7.17;6.23;;;17.80;99.90;;;;;;5085143;28;20445;-80
2021/07/04 06:06:27;;;;;;;6.43;5.83;;;17.90;99.90;;;;;;5074712;28;20489;-80
2021/07/04 06:08:54;;;;;;;5.90;5.30;;;17.90;99.90;;;;;;5084482;28;20975;-80
2021/07/04 06:11:21;;;;;;;6.87;5.40;;;18.00;99.90;;;;;;5074759;28;20445;-83
2021/07/04 06:13:47;;;;;;;5.60;5.10;;;18.00;99.90;;;;;;5074653;28;20453;-84
2021/07/04 06:16:16;;;;;;;6.40;5.17;;;18.20;99.90;;;;;;5075578;28;20488;-88
2021/07/04 06:18:42;;;;;;;4.70;4.40;;;18.30;99.90;;;;;;5075053;28;20469;-87
2021/07/04 06:21:09;;;;;;;5.10;4.70;;;18.40;99.90;;;;;;5076402;28;20449;-86
2021/07/04 06:23:36;;;;;;;4.87;4.43;;;18.60;99.90;;;;;;5084632;28;20448;-86
2021/07/04 06:26:03;;;;;;;6.83;5.30;;;18.70;99.90;;;;;;5092687;28;20468;-86
2021/07/04 06:28:29;;;;;;;5.20;4.70;;;18.80;99.90;;;;;;5093578;28;20480;-87
2021/07/04 06:30:56;;;;;;;5.80;5.30;;;19.00;99.90;;;;;;5079001;28;20437;-86
2021/07/04 06:33:24;;;;;;;6.30;5.77;;;19.10;99.90;;;;;;5089775;28;20439;-83
2021/07/04 06:35:51;;;;;;;5.70;5.17;;;19.40;99.90;;;;;;5093681;28;20443;-82
2021/07/04 06:38:18;;;;;;;6.23;5.60;;;19.60;99.90;;;;;;5092186;28;20472;-82
2021/07/04 06:40:45;;;;;;;7.70;6.00;;;19.60;99.90;;;;;;5074439;28;20433;-83
2021/07/04 06:43:11;;;;;;;6.93;5.57;;;19.80;99.90;;;;;;5080995;28;20435;-83
2021/07/04 06:45:38;;;;;;;6.77;6.07;;;20.00;99.90;;;;;;5084358;28;20468;-83
2021/07/04 06:48:05;;;;;;;5.67;5.10;;;20.10;99.90;;;;;;5074058;28;20471;-83
2021/07/04 06:50:34;;;;;;;5.93;5.33;;;20.30;99.90;;;;;;5073328;28;20467;-83
2021/07/04 06:53:00;;;;;;;5.23;4.73;;;20.40;99.90;;;;;;5073640;28;20444;-83
2021/07/04 06:55:27;;;;;;;7.00;6.30;;;20.50;99.90;;;;;;5073252;28;20943;-83
2021/07/04 06:57:54;;;;;;;5.60;5.10;;;20.50;99.90;;;;;;5073538;28;20464;-82
2021/07/04 07:00:21;;;;;;;6.20;5.60;;;20.60;99.90;;;;;;5073907;28;20452;-81
2021/07/04 07:02:48;;;;;;;5.70;4.77;;;20.70;99.90;;;;;;5073235;28;20448;-82
2021/07/04 07:05:16;;;;;;;7.13;4.70;;;20.70;99.90;;;;;;5073065;28;20472;-82
2021/07/04 07:07:44;;;;;;;5.07;4.50;;;20.70;99.90;;;;;;5073081;28;20464;-85
2021/07/04 07:10:13;;;;;;;5.37;4.87;;;20.70;99.90;;;;;;5073706;28;20459;-82
2021/07/04 07:12:40;;;;;;;5.07;4.40;;;20.70;99.90;;;;;;5073302;28;20480;-80
2021/07/04 07:15:09;;;;;;;5.00;4.60;;;20.80;99.90;;;;;;5073024;28;20476;-80
2021/07/04 07:17:35;;;;;;;4.80;4.40;;;20.80;99.90;;;;;;5073674;28;20847;-79
2021/07/04 07:20:03;;;;;;;4.60;4.30;;;20.70;99.90;;;;;;5072918;28;20448;-79
2021/07/04 07:22:30;;;;;;;5.57;4.73;;;20.70;99.90;;;;;;5073608;28;20448;-86
2021/07/04 07:24:58;;;;;;;5.20;4.70;;;20.80;99.90;;;;;;5077312;28;20471;-81
2021/07/04 07:27:25;;;;;;;5.23;4.83;;;20.80;99.90;;;;;;5073153;28;20468;-81
2021/07/04 07:29:52;;;;;;;4.97;4.50;;;20.80;99.90;;;;;;5073340;28;20452;-83
2021/07/04 07:32:19;;;;;;;6.70;4.40;;;20.80;99.90;;;;;;5084226;28;20446;-79
2021/07/04 07:34:46;;;;;;;5.27;4.77;;;21.10;99.90;;;;;;5080310;28;20452;-79
2021/07/04 07:37:13;;;;;;;5.23;4.80;;;21.10;99.90;;;;;;5093082;28;20458;-81
2021/07/04 07:39:40;;;;;;;5.83;4.33;;;21.30;99.90;;;;;;5086213;28;20539;-81
2021/07/04 07:42:08;;;;;;;5.27;4.87;;;21.30;99.90;;;;;;5072655;28;20451;-81
2021/07/04 07:44:35;;;;;;;5.13;4.73;;;21.50;99.90;;;;;;5085707;28;20451;-81
2021/07/04 07:47:02;;;;;;;4.80;4.40;;;21.70;99.90;;;;;;5093244;28;20482;-81
2021/07/04 07:49:29;;;;;;;4.20;3.90;;;21.80;99.90;;;;;;5081974;28;20450;-81
2021/07/04 07:51:56;;;;;;;4.50;4.10;;;22.00;99.90;;;;;;5072833;28;20773;-81
2021/07/04 07:54:23;;;;;;;5.20;4.70;;;22.00;99.90;;;;;;5073544;28;20448;-82
2021/07/04 07:56:49;;;;;;;4.90;4.50;;;21.90;99.90;;;;;;5086982;28;20444;-81
2021/07/04 07:59:19;;;;;;;5.20;4.80;;;21.80;99.90;;;;;;5087366;28;20456;-81
2021/07/04 08:01:47;;;;;;;5.07;4.67;;;21.60;99.90;;;;;;5084159;28;20451;-81
2021/07/04 08:04:14;;;;;;;5.40;4.90;;;21.50;99.90;;;;;;5080774;28;20448;-81
2021/07/04 08:06:41;;;;;;;4.93;4.60;;;21.40;99.90;;;;;;5072879;28;20484;-81
2021/07/04 08:09:08;;;;;;;6.40;4.40;;;21.50;99.90;;;;;;5082045;28;20467;-82
2021/07/04 08:11:35;;;;;;;4.87;4.47;;;22.10;99.90;;;;;;5093069;28;20450;-82
2021/07/04 08:14:02;;;;;;;5.30;4.80;;;22.70;99.90;;;;;;5083549;28;20205;-79
2021/07/04 08:16:30;;;;;;;4.75;4.20;;;23.40;99.90;;;;;;5072438;28;20226;-79
2021/07/04 08:18:56;;;;;;;4.68;4.38;;;23.90;99.90;;;;;;5073015;28;20696;-79
2021/07/04 08:21:23;;;;;;;5.20;4.80;;;24.50;99.90;;;;;;5081754;28;20220;-79
2021/07/04 08:23:50;;;;;;;5.10;4.60;;;25.00;99.90;;;;;;5092707;28;20228;-81
2021/07/04 08:26:17;;;;;;;8.38;5.15;;;25.30;99.90;;;;;;5092603;28;20228;-81
2021/07/04 08:28:44;;;;;;;3.92;3.72;;;25.20;99.90;;;;;;5086274;28;20210;-82
2021/07/04 08:31:11;;;;;;;4.70;4.30;;;25.10;99.90;;;;;;5072902;28;20650;-81
2021/07/04 08:33:39;;;;;;;4.70;4.40;;;25.00;99.90;;;;;;5088079;28;20197;-81
2021/07/04 08:36:06;;;;;;;5.15;4.72;;;25.00;99.90;;;;;;5078763;28;20202;-81
2021/07/04 08:38:33;;;;;;;5.03;4.63;;;24.90;99.90;;;;;;5086812;28;20593;-81
2021/07/04 08:41:00;;;;;;;5.22;4.82;;;24.50;99.90;;;;;;5092053;28;20198;-81
2021/07/04 08:43:29;;;;;;;5.22;4.82;;;23.90;99.90;;;;;;5092066;28;20668;-81
2021/07/04 08:45:56;;;;;;;4.70;4.40;;;23.50;99.90;;;;;;5072351;28;20688;-81
2021/07/04 08:48:23;;;;;;;4.70;4.30;;;23.10;99.90;;;;;;5072345;28;20222;-81
2021/07/04 08:50:51;;;;;;;5.32;4.82;;;22.90;99.90;;;;;;5090785;28;20683;-87
2021/07/04 08:53:19;;;;;;;6.13;5.55;;;22.80;99.90;;;;;;5077059;28;20202;-86
2021/07/04 08:55:46;;;;;;;5.18;4.78;;;22.80;99.90;;;;;;5093314;28;20688;-87
2021/07/04 08:58:19;;;;;;;5.40;4.90;;;22.80;99.90;;;;;;5084088;28;20229;-86
2021/07/04 09:01:06;;;;;;;5.50;5.10;;;22.90;99.90;;;;;;5094989;28;20200;-86
2021/07/04 09:03:33;;;;;;;5.07;4.68;;;22.80;99.90;;;;;;5087620;28;20198;-86
2021/07/04 09:06:01;;;;;;;5.03;4.63;;;22.60;99.90;;;;;;5094193;28;20218;-86
2021/07/04 09:08:28;;;;;;;4.43;4.13;;;22.50;99.90;;;;;;5112598;28;20232;-85
2021/07/04 09:11:15;;;;;;;4.63;4.33;;;22.50;99.90;;;;;;5101853;28;20194;-86
2021/07/04 09:13:44;;;;;;;4.40;4.10;;;22.40;99.90;;;;;;5086592;28;20198;-86
2021/07/04 09:16:12;;;;;;;4.37;3.97;;;22.30;99.90;;;;;;5098870;28;20229;-86
2021/07/04 09:18:40;;;;;;;4.80;4.30;;;22.30;99.90;;;;;;5091975;28;20999;-86
2021/07/04 09:21:21;;;;;;;5.80;4.57;;;22.20;99.90;;;;;;5092892;28;20221;-85
2021/07/04 09:23:48;;;;;;;5.20;4.70;;;22.30;99.90;;;;;;5075721;28;20436;-80
2021/07/04 09:26:40;;;;;;;4.70;4.30;;;22.30;99.90;;;;;;5075565;28;20237;-75
2021/07/04 09:29:10;;;;;;;4.23;3.93;;;22.30;99.90;;;;;;5079506;28;20213;-74
2021/07/04 09:31:37;;;;;;;5.03;4.40;;;22.30;99.90;;;;;;5093513;28;20444;-78
2021/07/04 09:34:06;;;;;;;4.97;4.50;;;22.40;99.90;;;;;;5095281;28;20447;-74
2021/07/04 09:36:35;;;;;;;4.50;4.13;;;22.40;99.90;;;;;;5092716;28;20190;-84
2021/07/04 09:39:15;;;;;;;4.67;4.27;;;22.50;99.90;;;;;;5077029;28;20464;-79
2021/07/04 09:42:02;;;;;;;4.30;4.03;;;22.60;99.90;;;;;;5093171;28;20192;-80
2021/07/04 09:44:28;;;;;;;3.97;3.77;;;22.70;99.90;;;;;;5093767;28;20189;-80
2021/07/04 09:47:11;;;;;;;4.07;3.77;;;22.70;99.90;;;;;;5084889;28;20214;-81
2021/07/04 09:49:38;;;;;;;4.73;4.33;;;22.80;99.90;;;;;;5092501;28;20186;-80
2021/07/04 09:52:14;;;;;;;5.73;5.23;;;22.80;99.90;;;;;;5075505;28;20225;-80
2021/07/04 09:54:54;;;;;;;5.07;4.63;;;22.80;99.90;;;;;;5075268;28;20194;-80
2021/07/04 09:57:20;;;;;;;5.27;4.70;;;22.70;99.90;;;;;;5084629;28;20266;-80
2021/07/04 09:59:47;;;;;;;4.43;4.03;;;22.80;99.90;;;;;;5093882;28;20656;-80
2021/07/04 10:02:15;;;;;;;5.23;4.80;;;22.80;99.90;;;;;;5085654;28;20202;-81
2021/07/04 10:04:42;;;;;;;4.90;4.50;;;23.10;99.90;;;;;;5074052;28;20696;-80
2021/07/04 10:07:09;;;;;;;4.47;4.17;;;23.10;99.90;;;;;;5077536;28;20220;-81
2021/07/04 10:09:40;;;;;;;4.93;4.47;;;23.00;99.90;;;;;;5074715;28;20210;-80
2021/07/04 10:12:07;;;;;;;4.55;4.25;;;22.90;99.90;;;;;;5074514;28;20655;-80
2021/07/04 10:14:34;;;;;;;4.13;3.80;;;22.80;99.90;;;;;;5074298;28;20654;-80
2021/07/04 10:17:02;;;;;;;4.37;3.97;;;22.40;99.90;;;;;;5078929;28;20218;-80
2021/07/04 10:19:30;;;;;;;4.10;3.80;;;22.20;99.90;;;;;;5081548;28;20444;-80
2021/07/04 10:21:59;;;;;;;4.83;4.47;;;22.00;99.90;;;;;;5094432;28;20546;-81
2021/07/04 10:24:27;;;;;;;3.37;3.17;;;21.90;99.90;;;;;;5075546;28;20454;-82
2021/07/04 10:26:57;;;;;;;4.03;3.73;;;21.70;99.90;;;;;;5074325;28;20484;-81
2021/07/04 10:29:27;;;;;;;4.17;3.87;;;21.70;99.90;;;;;;5094260;28;20439;-81
2021/07/04 10:31:54;;;;;;;3.77;3.57;;;21.60;99.90;;;;;;5093727;28;20443;-81
2021/07/04 10:34:26;;;;;;;3.93;3.63;;;21.50;99.90;;;;;;5079311;28;20943;-81
2021/07/04 10:36:58;;;;;;;4.40;4.00;;;21.50;99.90;;;;;;5076521;28;20880;-81
2021/07/04 10:39:26;;;;;;;4.00;3.80;;;21.50;99.90;;;;;;5084337;28;20922;-81
2021/07/04 10:41:56;;;;;;;4.20;3.87;;;21.50;99.90;;;;;;5075927;28;20453;-81
2021/07/04 10:44:37;;;;;;;4.03;3.73;;;21.40;99.90;;;;;;5078926;28;20455;-80
2021/07/04 10:47:12;;;;;;;4.13;3.83;;;21.40;99.90;;;;;;5093629;28;20462;-80
2021/07/04 10:49:41;;;;;;;4.07;3.70;;;21.40;99.90;;;;;;5073920;28;20456;-80
2021/07/04 10:52:12;;;;;;;3.40;3.20;;;21.40;99.90;;;;;;5076687;28;20454;-80
2021/07/04 10:54:57;;;;;;;3.67;3.37;;;21.50;99.90;;;;;;5093623;28;20455;-80
2021/07/04 10:57:32;;;;;;;4.57;4.20;;;21.60;99.90;;;;;;5089333;28;20550;-81
2021/07/04 11:00:16;;;;;;;4.40;4.00;;;21.70;99.90;;;;;;5073553;28;20448;-81
2021/07/04 11:02:45;;;;;;;4.13;3.83;;;21.90;99.90;;;;;;5075036;28;20428;-82
2021/07/04 11:05:13;;;;;;;4.73;4.33;;;22.00;99.90;;;;;;5093440;28;20447;-81
2021/07/04 11:08:09;;;;;;;4.10;3.80;;;22.10;99.90;;;;;;5088756;28;20486;-82
2021/07/04 11:10:38;;;;;;;4.67;4.30;;;22.10;99.90;;;;;;5090144;28;20460;-81
2021/07/04 11:13:47;;;;;;;4.67;4.27;;;22.20;99.90;;;;;;5093302;28;20657;-81
2021/07/04 11:16:24;;;;;;;4.73;4.33;;;22.40;99.90;;;;;;5030197;28;20476;-81
2021/07/04 11:18:54;;;;;;;4.43;4.00;;;22.50;99.90;;;;;;5030633;28;20480;-81
2021/07/04 11:21:24;;;;;;;3.97;3.67;;;22.50;99.90;;;;;;5067317;28;20198;-81
2021/07/04 11:24:19;;;;;;;4.30;3.93;;;22.60;99.90;;;;;;5093757;28;20442;-81
2021/07/04 11:27:21;;;;;;;3.60;3.37;;;22.60;99.90;;;;;;5065876;28;20222;-81
2021/07/04 11:30:28;;;;;;;4.23;3.93;;;22.50;99.90;;;;;;5073053;28;20661;-81
2021/07/04 11:33:25;;;;;;;4.00;3.70;;;22.50;99.90;;;;;;5031007;28;20207;-81
2021/07/04 11:35:54;;;;;;;4.43;4.13;;;22.40;99.90;;;;;;5073147;28;20202;-81
2021/07/04 11:38:22;;;;;;;4.47;4.17;;;22.40;99.90;;;;;;5072098;28;20460;-88
2021/07/04 11:40:49;;;;;;;4.23;3.93;;;22.30;99.90;;;;;;5082454;28;20213;-77
2021/07/04 11:43:18;;;;;;;4.53;4.03;;;22.30;99.90;;;;;;5072579;28;20440;-77
2021/07/04 11:45:51;;;;;;;4.17;3.87;;;22.20;99.90;;;;;;5072453;28;20190;-77
2021/07/04 11:48:18;;;;;;;4.50;4.10;;;22.10;99.90;;;;;;5072695;28;20476;-77
2021/07/04 11:50:48;;;;;;;4.53;4.23;;;22.00;99.90;;;;;;5071673;28;20428;-78
2021/07/04 11:53:15;;;;;;;4.33;4.03;;;21.90;99.90;;;;;;5072131;28;20930;-81
2021/07/04 11:55:59;;;;;;;4.00;3.70;;;21.80;99.90;;;;;;5074393;28;20578;-80
2021/07/04 11:58:27;;;;;;;5.10;4.70;;;21.70;99.90;;;;;;5074117;28;20470;-77
2021/07/04 12:00:56;;;;;;;5.20;4.80;;;21.70;99.90;;;;;;5072524;28;20448;-77
2021/07/04 12:03:24;;;;;;;5.30;4.90;;;21.60;99.90;;;;;;5074525;28;20442;-79
2021/07/04 12:05:53;;;;;;;6.60;6.00;;;21.60;99.90;;;;;;5082508;28;20435;-87
2021/07/04 12:08:20;;;;;;;4.17;3.87;;;21.70;99.90;;;;;;5082906;28;20479;-81
2021/07/04 12:10:51;;;;;;;4.43;4.03;;;21.80;99.90;;;;;;5074161;28;20451;-80
2021/07/04 12:13:18;;;;;;;4.67;4.27;;;21.90;99.90;;;;;;5076827;28;20502;-83
2021/07/04 12:15:48;;;;;;;5.33;4.83;;;22.10;99.90;;;;;;5077238;28;20494;-81
2021/07/04 12:18:18;;;;;;;4.77;4.40;;;22.30;99.90;;;;;;5088393;28;20822;-88
2021/07/04 12:20:52;;;;;;;4.87;4.43;;;22.40;99.90;;;;;;5072314;28;20488;-88
2021/07/04 12:23:19;;;;;;;4.97;4.57;;;22.60;99.90;;;;;;5072826;28;20193;-82
2021/07/04 12:25:46;;;;;;;4.50;4.20;;;22.70;99.90;;;;;;5071844;28;20452;-78
2021/07/04 12:28:14;;;;;;;4.00;3.70;;;22.80;99.90;;;;;;5092540;28;20232;-78
2021/07/04 12:30:42;;;;;;;5.13;4.70;;;22.80;99.90;;;;;;5087954;28;20206;-78
2021/07/04 12:33:11;;;;;;;4.43;4.00;;;23.00;99.90;;;;;;5076674;28;20198;-78
2021/07/04 12:35:42;;;;;;;2.93;2.73;;;23.20;99.90;;;;;;5087934;28;20198;-78
2021/07/04 12:38:11;;;;;;;2.33;2.13;;;23.40;99.90;;;;;;5079713;28;20732;-78
2021/07/04 12:40:50;;;;;;;2.07;1.97;;;23.40;99.90;;;;;;5083247;28;20576;-78
2021/07/04 12:43:19;;;;;;;1.98;1.70;;;23.40;99.90;;;;;;5086229;28;20193;-78
2021/07/04 12:45:48;;;;;;;2.23;2.00;;;23.50;99.90;;;;;;5087809;28;20197;-78
2021/07/04 12:48:17;;;;;;;2.30;2.17;;;23.60;99.90;;;;;;5076119;28;20229;-78
2021/07/04 12:50:51;;;;;;;2.70;2.50;;;23.60;99.90;;;;;;5080880;28;20197;-78
2021/07/04 12:53:18;;;;;;;1.90;1.80;;;23.60;99.90;;;;;;5078714;28;20221;-75